Terminal Aerodrome Forecast
Issued by NWS

Home | Current Version | Previous Version | Text Only | Print | Product List | Glossary On
Versions: 1 2 3 4 5 6 7 8 9 10 11 12
156
FTAK31 PAJN 200529
TAFASI
TAF
PASI 200529Z 2006/2106 34005KT P6SM SCT040 SCT120
     FM202000 30011KT P6SM SCT250=

USA.gov is the U.S. government's official web portal to all federal, state and local government web resources and services.